Time;durP1;ratioP1;P1;durP2;ratioP2;P2;SDS_P1;SDS_P2;PMS_P1;PMS_P2;Temp;Humidity;BMP_temperature;BMP_pressure;BME280_temperature;BME280_humidity;BME280_pressure;Samples;Min_cycle;Max_cycle;Signal;HPM_P1;HPM_P2
2021/01/26 00:00:49;;;;;;;;;;;;;;;;;;5056492;28;861;-77
2021/01/26 00:03:14;;;;;;;;;;;;;;;;;;5056090;28;1889;-77
2021/01/26 00:05:39;;;;;;;;;;;;;;;;;;5055205;28;1353;-78
2021/01/26 00:08:05;;;;;;;;;;;;;;;;;;5055420;28;1396;-79
2021/01/26 00:10:30;;;;;;;;;;;;;;;;;;5056308;28;1018;-79
2021/01/26 00:12:55;;;;;;;;;;;;;;;;;;5056095;28;884;-77
2021/01/26 00:15:20;;;;;;;;;;;;;;;;;;5056157;28;1270;-77
2021/01/26 00:17:47;;;;;;;;;;;;;;;;;;5056138;28;974;-78
2021/01/26 00:20:13;;;;;;;;;;;;;;;;;;5054809;28;1199;-78
2021/01/26 00:22:38;;;;;;;;;;;;;;;;;;5055866;28;1890;-78
2021/01/26 00:25:04;;;;;;;;;;;;;;;;;;5054755;28;1293;-77
2021/01/26 00:27:30;;;;;;;;;;;;;;;;;;5055903;28;884;-78
2021/01/26 00:29:55;;;;;;;;;;;;;;;;;;5055912;28;964;-79
2021/01/26 00:32:20;;;;;;;;;;;;;;;;;;5055972;28;829;-78
2021/01/26 00:34:45;;;;;;;;;;;;;;;;;;5055748;28;1306;-77
2021/01/26 00:37:10;;;;;;;;;;;;;;;;;;5055626;28;893;-78
2021/01/26 00:39:36;;;;;;;;;;;;;;;;;;5054417;28;941;-77
2021/01/26 00:42:01;;;;;;;;;;;;;;;;;;5055894;28;1039;-77
2021/01/26 00:44:26;;;;;;;;;;;;;;;;;;5055499;28;1882;-78
2021/01/26 00:46:51;;;;;;;;;;;;;;;;;;5055156;28;1436;-79
2021/01/26 00:49:17;;;;;;;;;;;;;;;;;;5055594;28;861;-78
2021/01/26 00:51:42;;;;;;;;;;;;;;;;;;5055423;28;869;-78
2021/01/26 00:54:07;;;;;;;;;;;;;;;;;;5054331;28;1232;-78
2021/01/26 00:56:33;;;;;;;;;;;;;;;;;;5055374;28;1314;-79
2021/01/26 00:58:58;;;;;;;;;;;;;;;;;;5054111;28;881;-79
2021/01/26 01:01:23;;;;;;;;;;;;;;;;;;5055266;28;845;-76
2021/01/26 01:03:48;;;;;;;;;;;;;;;;;;5055157;28;1960;-79
2021/01/26 01:06:14;;;;;;;;;;;;;;;;;;5055195;28;1302;-77
2021/01/26 01:08:40;;;;;;;;;;;;;;;;;;5055078;28;1007;-79
2021/01/26 01:11:05;;;;;;;;;;;;;;;;;;5055101;28;1043;-77
2021/01/26 01:13:30;;;;;;;;;;;;;;;;;;5053608;28;1337;-78
2021/01/26 01:15:55;;;;;;;;;;;;;;;;;;5055005;28;1318;-77
2021/01/26 01:18:20;;;;;;;;;;;;;;;;;;5054379;28;2049;-77
2021/01/26 01:20:46;;;;;;;;;;;;;;;;;;5054572;28;889;-78
2021/01/26 01:23:11;;;;;;;;;;;;;;;;;;5055414;28;1894;-76
2021/01/26 01:25:37;;;;;;;;;;;;;;;;;;5055198;28;1420;-77
2021/01/26 01:28:02;;;;;;;;;;;;;;;;;;5054060;28;1334;-78
2021/01/26 01:30:29;;;;;;;;;;;;;;;;;;5054663;28;881;-77
2021/01/26 01:32:55;;;;;;;;;;;;;;;;;;5055016;28;885;-78
2021/01/26 01:35:21;;;;;;;;;;;;;;;;;;5053887;28;1369;-78
2021/01/26 01:37:46;;;;;;;;;;;;;;;;;;5053807;28;2947;-78
2021/01/26 01:40:13;;;;;;;;;;;;;;;;;;5055115;28;801;-79
2021/01/26 01:42:38;;;;;;;;;;;;;;;;;;5054875;28;1947;-77
2021/01/26 01:45:05;;;;;;;;;;;;;;;;;;5054880;28;1326;-78
2021/01/26 01:47:33;;;;;;;;;;;;;;;;;;5055003;28;987;-77
2021/01/26 01:49:59;;;;;;;;;;;;;;;;;;5053718;28;830;-77
2021/01/26 01:52:27;;;;;;;;;;;;;;;;;;5053460;28;1482;-77
2021/01/26 01:54:57;;;;;;;;;;;;;;;;;;5054568;28;1396;-77
2021/01/26 01:57:27;;;;;;;;;;;;;;;;;;5054470;28;877;-78
2021/01/26 01:59:56;;;;;;;;;;;;;;;;;;5053282;28;1217;-78
2021/01/26 02:02:22;;;;;;;;;;;;;;;;;;5054447;28;1949;-77
2021/01/26 02:04:47;;;;;;;;;;;;;;;;;;5053425;28;1369;-77
2021/01/26 02:07:13;;;;;;;;;;;;;;;;;;5054699;28;837;-78
2021/01/26 02:09:39;;;;;;;;;;;;;;;;;;5054802;28;853;-78
2021/01/26 02:12:05;;;;;;;;;;;;;;;;;;5054439;28;802;-78
2021/01/26 02:14:33;;;;;;;;;;;;;;;;;;5054676;28;960;-78
2021/01/26 02:17:17;;;;;;;;;;;;;;;;;;5054161;28;1128;-78
2021/01/26 02:20:01;;;;;;;;;;;;;;;;;;5053323;28;818;-76
2021/01/26 02:22:38;;;;;;;;;;;;;;;;;;5054285;28;1949;-76
2021/01/26 02:25:15;;;;;;;;;;;;;;;;;;5053455;28;1462;-77
2021/01/26 02:27:59;;;;;;;;;;;;;;;;;;5053192;28;1319;-79
2021/01/26 02:30:43;;;;;;;;;;;;;;;;;;5054494;28;794;-78
2021/01/26 02:33:26;;;;;;;;;;;;;;;;;;5054358;28;798;-79
2021/01/26 02:36:00;;;;;;;;;;;;;;;;;;5054326;28;1310;-77
2021/01/26 02:38:28;;;;;;;;;;;;;;;;;;5054612;28;888;-79
2021/01/26 02:41:00;;;;;;;;;;;;;;;;;;5054422;28;880;-77
2021/01/26 02:43:35;;;;;;;;;;;;;;;;;;5053785;28;1898;-77
2021/01/26 02:46:09;;;;;;;;;;;;;;;;;;5054147;28;1290;-77
2021/01/26 02:48:53;;;;;;;;;;;;;;;;;;5054266;28;1014;-77
2021/01/26 02:51:31;;;;;;;;;;;;;;;;;;5054286;28;825;-77
2021/01/26 02:54:00;;;;;;;;;;;;;;;;;;5052679;28;1300;-77
2021/01/26 02:56:25;;;;;;;;;;;;;;;;;;5053899;28;1404;-77
2021/01/26 02:58:55;;;;;;;;;;;;;;;;;;5054080;28;880;-77
2021/01/26 03:01:20;;;;;;;;;;;;;;;;;;5054128;28;782;-77
2021/01/26 03:03:45;;;;;;;;;;;;;;;;;;5052510;28;1961;-77
2021/01/26 03:06:14;;;;;;;;;;;;;;;;;;5053618;28;1310;-77
2021/01/26 03:08:57;;;;;;;;;;;;;;;;;;5054044;28;814;-77
2021/01/26 03:11:52;;;;;;;;;;;;;;;;;;5058058;28;924;-77
2021/01/26 03:14:30;;;;;;;;;;;;;;;;;;5055769;28;1412;-78
2021/01/26 03:17:09;;;;;;;;;;;;;;;;;;5057535;28;1397;-78
2021/01/26 03:19:36;;;;;;;;;;;;;;;;;;5057742;28;869;-78
2021/01/26 03:22:02;;;;;;;;;;;;;;;;;;5057648;28;952;-77
2021/01/26 03:24:30;;;;;;;;;;;;;;;;;;5056340;28;1886;-77
2021/01/26 03:26:55;;;;;;;;;;;;;;;;;;5057513;28;1401;-77
2021/01/26 03:29:23;;;;;;;;;;;;;;;;;;5057504;28;1047;-77
2021/01/26 03:31:52;;;;;;;;;;;;;;;;;;5057624;28;798;-77
2021/01/26 03:34:18;;;;;;;;;;;;;;;;;;5057545;28;834;-77
2021/01/26 03:36:43;;;;;;;;;;;;;;;;;;5056488;28;1488;-77
2021/01/26 03:39:08;;;;;;;;;;;;;;;;;;5057590;28;937;-77
2021/01/26 03:41:34;;;;;;;;;;;;;;;;;;5056271;28;858;-77
2021/01/26 03:44:00;;;;;;;;;;;;;;;;;;5057008;28;1886;-78
2021/01/26 03:46:28;;;;;;;;;;;;;;;;;;5055937;28;1349;-78
2021/01/26 03:48:56;;;;;;;;;;;;;;;;;;5057221;28;888;-77
2021/01/26 03:51:21;;;;;;;;;;;;;;;;;;5056087;28;1318;-77
2021/01/26 03:53:53;;;;;;;;;;;;;;;;;;5057011;28;857;-77
2021/01/26 03:56:47;;;;;;;;;;;;;;;;;;5056782;28;1385;-77
2021/01/26 03:59:20;;;;;;;;;;;;;;;;;;5072801;28;1226;-77
2021/01/26 04:01:50;;;;;;;;;;;;;;;;;;5055771;28;1281;-77
2021/01/26 04:04:25;;;;;;;;;;;;;;;;;;5056812;28;2666;-77
2021/01/26 04:06:51;;;;;;;;;;;;;;;;;;5055380;28;1396;-76
2021/01/26 04:09:22;;;;;;;;;;;;;;;;;;5057124;28;853;-76
2021/01/26 04:11:54;;;;;;;;;;;;;;;;;;5056953;28;831;-77
2021/01/26 04:14:28;;;;;;;;;;;;;;;;;;5056669;28;849;-77
2021/01/26 04:17:10;;;;;;;;;;;;;;;;;;5056540;28;1397;-76
2021/01/26 04:19:41;;;;;;;;;;;;;;;;;;5056675;28;975;-76
2021/01/26 04:22:08;;;;;;;;;;;;;;;;;;5055759;28;864;-77
2021/01/26 04:24:33;;;;;;;;;;;;;;;;;;5056401;28;1890;-76
2021/01/26 04:27:00;;;;;;;;;;;;;;;;;;5056486;28;979;-77
2021/01/26 04:29:25;;;;;;;;;;;;;;;;;;5056468;28;944;-77
2021/01/26 04:31:52;;;;;;;;;;;;;;;;;;5056369;28;880;-77
2021/01/26 04:34:17;;;;;;;;;;;;;;;;;;5056297;28;881;-76
2021/01/26 04:36:42;;;;;;;;;;;;;;;;;;5056626;28;1413;-77
2021/01/26 04:39:08;;;;;;;;;;;;;;;;;;5056429;28;939;-77
2021/01/26 04:41:48;;;;;;;;;;;;;;;;;;5055217;28;905;-77
2021/01/26 04:44:39;;;;;;;;;;;;;;;;;;5056046;28;1890;-77
2021/01/26 04:47:19;;;;;;;;;;;;;;;;;;5062760;28;1330;-78
2021/01/26 04:49:47;;;;;;;;;;;;;;;;;;5056128;28;786;-77
2021/01/26 04:52:28;;;;;;;;;;;;;;;;;;5054757;28;1225;-77
2021/01/26 04:54:58;;;;;;;;;;;;;;;;;;5055858;28;1440;-77
2021/01/26 04:57:34;;;;;;;;;;;;;;;;;;5055968;28;1007;-77
2021/01/26 05:00:07;;;;;;;;;;;;;;;;;;5055944;28;960;-77
2021/01/26 05:02:38;;;;;;;;;;;;;;;;;;5055827;28;1898;-78
2021/01/26 05:05:16;;;;;;;;;;;;;;;;;;5055656;28;1349;-77
2021/01/26 05:07:43;;;;;;;;;;;;;;;;;;5055730;28;876;-77
2021/01/26 05:10:10;;;;;;;;;;;;;;;;;;5055797;28;1176;-76
2021/01/26 05:12:39;;;;;;;;;;;;;;;;;;5055507;28;904;-76
2021/01/26 05:15:07;;;;;;;;;;;;;;;;;;5055594;28;1310;-76
2021/01/26 05:17:38;;;;;;;;;;;;;;;;;;5055431;28;1211;-76
2021/01/26 05:20:23;;;;;;;;;;;;;;;;;;5055604;28;904;-76
2021/01/26 05:23:05;;;;;;;;;;;;;;;;;;5055081;28;1898;-76
2021/01/26 05:25:31;;;;;;;;;;;;;;;;;;5054375;28;1357;-76
2021/01/26 05:27:57;;;;;;;;;;;;;;;;;;5055137;28;806;-76
2021/01/26 05:30:29;;;;;;;;;;;;;;;;;;5055347;28;873;-76
2021/01/26 05:32:55;;;;;;;;;;;;;;;;;;5054221;28;892;-76
2021/01/26 05:35:21;;;;;;;;;;;;;;;;;;5055202;28;1393;-76
2021/01/26 05:37:47;;;;;;;;;;;;;;;;;;5053992;28;1096;-76
2021/01/26 05:40:17;;;;;;;;;;;;;;;;;;5053837;28;903;-76
2021/01/26 05:42:44;;;;;;;;;;;;;;;;;;5055114;28;1906;-76
2021/01/26 05:45:15;;;;;;;;;;;;;;;;;;5055128;28;1423;-77
2021/01/26 05:47:40;;;;;;;;;;;;;;;;;;5055004;28;1190;-76
2021/01/26 05:50:21;;;;;;;;;;;;;;;;;;5054798;28;810;-76
2021/01/26 05:52:46;;;;;;;;;;;;;;;;;;5054702;28;845;-77
2021/01/26 05:55:17;;;;;;;;;;;;;;;;;;5054912;28;1325;-76
2021/01/26 05:57:43;;;;;;;;;;;;;;;;;;5053646;28;1321;-77
2021/01/26 06:00:11;;;;;;;;;;;;;;;;;;5054965;28;790;-76
2021/01/26 06:02:37;;;;;;;;;;;;;;;;;;5054541;28;1956;-76
2021/01/26 06:05:06;;;;;;;;;;;;;;;;;;5054458;28;1351;-76
2021/01/26 06:07:31;;;;;;;;;;;;;;;;;;5053512;28;1207;-76
2021/01/26 06:09:57;;;;;;;;;;;;;;;;;;5054681;28;786;-76
2021/01/26 06:12:23;;;;;;;;;;;;;;;;;;5054552;28;1055;-76
2021/01/26 06:14:54;;;;;;;;;;;;;;;;;;5054555;28;1310;-76
2021/01/26 06:17:22;;;;;;;;;;;;;;;;;;5053001;28;1192;-76
2021/01/26 06:20:01;;;;;;;;;;;;;;;;;;5054769;28;913;-76
2021/01/26 06:22:26;;;;;;;;;;;;;;;;;;5054347;28;2076;-76
2021/01/26 06:24:52;;;;;;;;;;;;;;;;;;5054422;28;1420;-76
2021/01/26 06:27:21;;;;;;;;;;;;;;;;;;5053030;28;1515;-76
2021/01/26 06:30:01;;;;;;;;;;;;;;;;;;5053438;28;1325;-76
2021/01/26 06:32:32;;;;;;;;;;;;;;;;;;5054239;28;931;-76
2021/01/26 06:35:03;;;;;;;;;;;;;;;;;;5054019;28;1306;-76
2021/01/26 06:37:28;;;;;;;;;;;;;;;;;;5054260;28;1023;-76
2021/01/26 06:40:09;;;;;;;;;;;;;;;;;;5054359;28;915;-76
2021/01/26 06:42:44;;;;;;;;;;;;;;;;;;5054222;28;1902;-76
2021/01/26 06:45:14;;;;;;;;;;;;;;;;;;5056480;28;1310;-76
2021/01/26 06:47:55;;;;;;;;;;;;;;;;;;5058334;28;829;-77
2021/01/26 06:50:35;;;;;;;;;;;;;;;;;;5058307;28;874;-77
2021/01/26 06:53:06;;;;;;;;;;;;;;;;;;5058137;28;1016;-77
2021/01/26 06:55:31;;;;;;;;;;;;;;;;;;5058025;28;1392;-76
2021/01/26 06:58:06;;;;;;;;;;;;;;;;;;5058384;28;865;-77
2021/01/26 07:00:37;;;;;;;;;;;;;;;;;;5058193;28;869;-77
2021/01/26 07:03:14;;;;;;;;;;;;;;;;;;5057992;28;1898;-76
2021/01/26 07:05:58;;;;;;;;;;;;;;;;;;5057083;28;1373;-77
2021/01/26 07:08:23;;;;;;;;;;;;;;;;;;5057871;28;868;-75
2021/01/26 07:11:01;;;;;;;;;;;;;;;;;;5056710;28;952;-73
2021/01/26 07:13:31;;;;;;;;;;;;;;;;;;5057722;28;948;-70
2021/01/26 07:16:08;;;;;;;;;;;;;;;;;;5057471;28;1372;-74
2021/01/26 07:18:39;;;;;;;;;;;;;;;;;;5056609;28;945;-74
2021/01/26 07:21:10;;;;;;;;;;;;;;;;;;5056976;28;1226;-74
2021/01/26 07:23:53;;;;;;;;;;;;;;;;;;5057586;28;1901;-74
2021/01/26 07:26:22;;;;;;;;;;;;;;;;;;5056653;28;1369;-73
2021/01/26 07:29:07;;;;;;;;;;;;;;;;;;5056063;28;1274;-71
2021/01/26 07:31:51;;;;;;;;;;;;;;;;;;5066572;28;1100;-71
2021/01/26 07:34:16;;;;;;;;;;;;;;;;;;5057450;28;810;-74
2021/01/26 07:36:45;;;;;;;;;;;;;;;;;;5057531;28;1425;-72
2021/01/26 07:39:13;;;;;;;;;;;;;;;;;;5057356;28;972;-71
2021/01/26 07:41:56;;;;;;;;;;;;;;;;;;5057481;28;1067;-74
2021/01/26 07:44:40;;;;;;;;;;;;;;;;;;5055618;28;1967;-73
2021/01/26 07:47:17;;;;;;;;;;;;;;;;;;5057303;28;805;-70
2021/01/26 07:49:48;;;;;;;;;;;;;;;;;;5057359;28;861;-73
2021/01/26 07:52:15;;;;;;;;;;;;;;;;;;5057124;28;836;-72
2021/01/26 07:54:46;;;;;;;;;;;;;;;;;;5057046;28;1314;-72
2021/01/26 07:57:12;;;;;;;;;;;;;;;;;;5055084;28;1007;-73
2021/01/26 07:59:40;;;;;;;;;;;;;;;;;;5056910;28;906;-75
2021/01/26 08:02:12;;;;;;;;;;;;;;;;;;5055510;28;834;-71
2021/01/26 08:04:38;;;;;;;;;;;;;;;;;;5056790;28;1890;-73
2021/01/26 08:07:04;;;;;;;;;;;;;;;;;;5056690;28;841;-71
2021/01/26 08:09:32;;;;;;;;;;;;;;;;;;5056962;28;1076;-70
2021/01/26 08:12:00;;;;;;;;;;;;;;;;;;5055934;28;1143;-74
2021/01/26 08:14:30;;;;;;;;;;;;;;;;;;5055300;28;1219;-71
2021/01/26 08:16:57;;;;;;;;;;;;;;;;;;5056845;28;1428;-70
2021/01/26 08:19:34;;;;;;;;;;;;;;;;;;5056692;28;876;-74
2021/01/26 08:22:13;;;;;;;;;;;;;;;;;;5056746;28;900;-73
2021/01/26 08:24:39;;;;;;;;;;;;;;;;;;5056243;28;1953;-72
2021/01/26 08:27:23;;;;;;;;;;;;;;;;;;5055304;28;1202;-71
2021/01/26 08:29:48;;;;;;;;;;;;;;;;;;5055187;28;1873;-73
2021/01/26 08:32:23;;;;;;;;;;;;;;;;;;5056313;28;817;-70
2021/01/26 08:35:03;;;;;;;;;;;;;;;;;;5056455;28;1400;-72
2021/01/26 08:37:40;;;;;;;;;;;;;;;;;;5054907;28;1347;-73
2021/01/26 08:40:06;;;;;;;;;;;;;;;;;;5055137;28;1229;-71
2021/01/26 08:42:40;;;;;;;;;;;;;;;;;;5056071;28;1897;-70
2021/01/26 08:45:07;;;;;;;;;;;;;;;;;;5056163;28;1262;-74
2021/01/26 08:47:43;;;;;;;;;;;;;;;;;;5054951;28;1051;-72
2021/01/26 08:50:17;;;;;;;;;;;;;;;;;;5056154;28;1308;-74
2021/01/26 08:52:42;;;;;;;;;;;;;;;;;;5054624;28;1274;-72
2021/01/26 08:55:08;;;;;;;;;;;;;;;;;;5055821;28;1377;-71
2021/01/26 08:57:33;;;;;;;;;;;;;;;;;;5055973;28;873;-71
2021/01/26 09:00:19;;;;;;;;;;;;;;;;;;5055836;28;825;-74
2021/01/26 09:02:46;;;;;;;;;;;;;;;;;;5053785;28;1894;-72
2021/01/26 09:05:12;;;;;;;;;;;;;;;;;;5055923;28;1309;-71
2021/01/26 09:07:49;;;;;;;;;;;;;;;;;;5055743;28;960;-71
2021/01/26 09:10:23;;;;;;;;;;;;;;;;;;5054339;28;1210;-74
2021/01/26 09:12:49;;;;;;;;;;;;;;;;;;5055492;28;964;-71
2021/01/26 09:15:15;;;;;;;;;;;;;;;;;;5055543;28;1337;-73
2021/01/26 09:17:41;;;;;;;;;;;;;;;;;;5055497;28;799;-71
2021/01/26 09:20:15;;;;;;;;;;;;;;;;;;5055470;28;864;-72
2021/01/26 09:22:41;;;;;;;;;;;;;;;;;;5055280;28;1910;-71
2021/01/26 09:25:22;;;;;;;;;;;;;;;;;;5060701;28;1472;-71
2021/01/26 09:28:01;;;;;;;;;;;;;;;;;;5064750;28;1550;-75
2021/01/26 09:30:27;;;;;;;;;;;;;;;;;;5066182;28;1530;-72
2021/01/26 09:33:04;;;;;;;;;;;;;;;;;;5064149;28;1618;-71
2021/01/26 09:35:37;;;;;;;;;;;;;;;;;;5062616;28;1626;-71
2021/01/26 09:38:04;;;;;;;;;;;;;;;;;;5064285;28;1504;-75
2021/01/26 09:40:30;;;;;;;;;;;;;;;;;;5064530;28;1553;-73
2021/01/26 09:43:11;;;;;;;;;;;;;;;;;;5047266;28;1952;-70
2021/01/26 09:45:37;;;;;;;;;;;;;;;;;;5064497;28;1591;-71
2021/01/26 09:48:02;;;;;;;;;;;;;;;;;;5062954;28;1514;-72
2021/01/26 09:50:28;;;;;;;;;;;;;;;;;;5074330;28;1329;-71
2021/01/26 09:52:58;;;;;;;;;;;;;;;;;;5073306;28;1325;-74
2021/01/26 09:55:24;;;;;;;;;;;;;;;;;;5074912;28;1447;-73
2021/01/26 09:57:52;;;;;;;;;;;;;;;;;;5074837;28;2100;-72
2021/01/26 10:00:20;;;;;;;;;;;;;;;;;;5067144;28;1829;-72
2021/01/26 10:02:46;;;;;;;;;;;;;;;;;;5064373;28;1894;-73
2021/01/26 10:05:13;;;;;;;;;;;;;;;;;;5073483;28;1455;-73
2021/01/26 10:07:39;;;;;;;;;;;;;;;;;;5073420;28;1234;-70
2021/01/26 10:10:12;;;;;;;;;;;;;;;;;;5074664;28;1393;-71
2021/01/26 10:12:38;;;;;;;;;;;;;;;;;;5073402;28;932;-73
2021/01/26 10:15:22;;;;;;;;;;;;;;;;;;5074618;28;1310;-72
2021/01/26 10:18:26;;;;;;;;;;;;;;;;;;5074543;28;908;-70
2021/01/26 10:20:55;;;;;;;;;;;;;;;;;;5072309;28;1289;-72
2021/01/26 10:23:26;;;;;;;;;;;;;;;;;;5072196;28;1969;-72
2021/01/26 10:25:52;;;;;;;;;;;;;;;;;;5073096;28;1317;-72
2021/01/26 10:28:25;;;;;;;;;;;;;;;;;;5074548;28;869;-72
2021/01/26 10:30:51;;;;;;;;;;;;;;;;;;5073448;28;1408;-71
2021/01/26 10:33:36;;;;;;;;;;;;;;;;;;5074565;28;1057;-72
2021/01/26 10:36:20;;;;;;;;;;;;;;;;;;5074397;28;1298;-71
2021/01/26 10:38:46;;;;;;;;;;;;;;;;;;5074442;28;837;-72
2021/01/26 10:41:17;;;;;;;;;;;;;;;;;;5074599;28;829;-72
2021/01/26 10:43:43;;;;;;;;;;;;;;;;;;5072906;28;1965;-72
2021/01/26 10:46:12;;;;;;;;;;;;;;;;;;5073100;28;1314;-71
2021/01/26 10:48:42;;;;;;;;;;;;;;;;;;5074343;28;908;-71
2021/01/26 10:51:09;;;;;;;;;;;;;;;;;;5073105;28;755;-71
2021/01/26 10:53:37;;;;;;;;;;;;;;;;;;5074211;28;920;-72
2021/01/26 10:56:03;;;;;;;;;;;;;;;;;;5072802;28;1369;-70
2021/01/26 10:58:28;;;;;;;;;;;;;;;;;;5074249;28;822;-71
2021/01/26 11:00:53;;;;;;;;;;;;;;;;;;5074172;28;916;-72
2021/01/26 11:03:18;;;;;;;;;;;;;;;;;;5072584;28;1902;-72
2021/01/26 11:05:44;;;;;;;;;;;;;;;;;;5073920;28;1298;-71
2021/01/26 11:08:09;;;;;;;;;;;;;;;;;;5072711;28;2385;-74
2021/01/26 11:10:35;;;;;;;;;;;;;;;;;;5071541;28;2734;-74
2021/01/26 11:13:00;;;;;;;;;;;;;;;;;;5073755;28;892;-74
2021/01/26 11:15:27;;;;;;;;;;;;;;;;;;5073649;28;1388;-74
2021/01/26 11:17:52;;;;;;;;;;;;;;;;;;5073890;28;900;-74
2021/01/26 11:20:17;;;;;;;;;;;;;;;;;;5074063;28;1070;-74
2021/01/26 11:22:43;;;;;;;;;;;;;;;;;;5073717;28;1898;-74
2021/01/26 11:25:09;;;;;;;;;;;;;;;;;;5073737;28;1309;-73
2021/01/26 11:27:35;;;;;;;;;;;;;;;;;;5072846;28;1149;-73
2021/01/26 11:30:03;;;;;;;;;;;;;;;;;;5073910;28;933;-74
2021/01/26 11:32:28;;;;;;;;;;;;;;;;;;5075296;28;995;-72
2021/01/26 11:34:54;;;;;;;;;;;;;;;;;;5077390;28;1390;-74
2021/01/26 11:37:19;;;;;;;;;;;;;;;;;;5077416;28;813;-74
2021/01/26 11:39:44;;;;;;;;;;;;;;;;;;5077474;28;952;-73
2021/01/26 11:42:10;;;;;;;;;;;;;;;;;;5077395;28;865;-74
2021/01/26 11:44:35;;;;;;;;;;;;;;;;;;5077415;28;1909;-74
2021/01/26 11:47:01;;;;;;;;;;;;;;;;;;5075821;28;790;-73
2021/01/26 11:49:26;;;;;;;;;;;;;;;;;;5077248;28;840;-73
2021/01/26 11:51:52;;;;;;;;;;;;;;;;;;5075680;28;1701;-74
2021/01/26 11:54:17;;;;;;;;;;;;;;;;;;5076978;28;769;-74
2021/01/26 11:56:42;;;;;;;;;;;;;;;;;;5075749;28;1442;-73
2021/01/26 11:59:08;;;;;;;;;;;;;;;;;;5077154;28;935;-73
2021/01/26 12:01:33;;;;;;;;;;;;;;;;;;5077011;28;813;-73
2021/01/26 12:03:58;;;;;;;;;;;;;;;;;;5076738;28;1893;-74
2021/01/26 12:06:24;;;;;;;;;;;;;;;;;;5076883;28;1377;-74
2021/01/26 12:08:49;;;;;;;;;;;;;;;;;;5076729;28;801;-73
2021/01/26 12:11:15;;;;;;;;;;;;;;;;;;5077103;28;913;-74
2021/01/26 12:13:42;;;;;;;;;;;;;;;;;;5075677;28;1422;-73
2021/01/26 12:16:07;;;;;;;;;;;;;;;;;;5078460;28;1410;-74
2021/01/26 12:18:33;;;;;;;;;;;;;;;;;;5076681;28;1955;-74
2021/01/26 12:20:58;;;;;;;;;;;;;;;;;;5076716;28;822;-75
2021/01/26 12:23:23;;;;;;;;;;;;;;;;;;5076922;28;1957;-72
2021/01/26 12:25:49;;;;;;;;;;;;;;;;;;5076754;28;1424;-72
2021/01/26 12:28:17;;;;;;;;;;;;;;;;;;5076721;28;884;-71
2021/01/26 12:30:42;;;;;;;;;;;;;;;;;;5076481;28;907;-71
2021/01/26 12:33:07;;;;;;;;;;;;;;;;;;5076238;28;952;-71
2021/01/26 12:35:34;;;;;;;;;;;;;;;;;;5075543;28;1455;-72
2021/01/26 12:38:00;;;;;;;;;;;;;;;;;;5076291;28;801;-72
2021/01/26 12:40:25;;;;;;;;;;;;;;;;;;5074975;28;1374;-72
2021/01/26 12:42:50;;;;;;;;;;;;;;;;;;5075554;28;1898;-71
2021/01/26 12:45:17;;;;;;;;;;;;;;;;;;5076054;28;1290;-71
2021/01/26 12:47:43;;;;;;;;;;;;;;;;;;5074606;28;1194;-71
2021/01/26 12:50:09;;;;;;;;;;;;;;;;;;5076188;28;770;-72
2021/01/26 12:52:35;;;;;;;;;;;;;;;;;;5074878;28;1519;-71
2021/01/26 12:55:00;;;;;;;;;;;;;;;;;;5074672;28;1455;-71
2021/01/26 12:57:26;;;;;;;;;;;;;;;;;;5074626;28;1318;-71
2021/01/26 12:59:52;;;;;;;;;;;;;;;;;;5074583;28;2433;-71
2021/01/26 13:02:22;;;;;;;;;;;;;;;;;;5075842;28;880;-71
2021/01/26 13:04:47;;;;;;;;;;;;;;;;;;5075788;28;1890;-71
2021/01/26 13:07:13;;;;;;;;;;;;;;;;;;5074294;28;1677;-71
2021/01/26 13:09:38;;;;;;;;;;;;;;;;;;5074433;28;2616;-70
2021/01/26 13:12:04;;;;;;;;;;;;;;;;;;5074309;28;1195;-70
2021/01/26 13:14:29;;;;;;;;;;;;;;;;;;5074390;28;814;-70
2021/01/26 13:16:54;;;;;;;;;;;;;;;;;;5070536;28;1423;-71
2021/01/26 13:19:21;;;;;;;;;;;;;;;;;;5066489;28;968;-71
2021/01/26 13:21:47;;;;;;;;;;;;;;;;;;5075158;28;1150;-70
2021/01/26 13:24:13;;;;;;;;;;;;;;;;;;5071593;28;1975;-70
2021/01/26 13:26:38;;;;;;;;;;;;;;;;;;5069665;28;1483;-70
2021/01/26 13:29:03;;;;;;;;;;;;;;;;;;5093791;28;1647;-71
2021/01/26 13:31:29;;;;;;;;;;;;;;;;;;5094149;28;1470;-71
2021/01/26 13:33:54;;;;;;;;;;;;;;;;;;5093453;28;1186;-71
2021/01/26 13:36:19;;;;;;;;;;;;;;;;;;5095096;28;1414;-71
2021/01/26 13:38:44;;;;;;;;;;;;;;;;;;5094091;28;1373;-71
2021/01/26 13:41:10;;;;;;;;;;;;;;;;;;5095349;28;809;-71
2021/01/26 13:43:35;;;;;;;;;;;;;;;;;;5083982;28;1890;-71
2021/01/26 13:46:01;;;;;;;;;;;;;;;;;;5074511;28;1520;-72
2021/01/26 13:48:26;;;;;;;;;;;;;;;;;;5073730;28;856;-71
2021/01/26 13:50:51;;;;;;;;;;;;;;;;;;5073656;28;1410;-70
2021/01/26 13:53:17;;;;;;;;;;;;;;;;;;5067828;28;1281;-70
2021/01/26 13:55:42;;;;;;;;;;;;;;;;;;5064224;28;3192;-71
2021/01/26 13:58:09;;;;;;;;;;;;;;;;;;5073551;28;1579;-70
2021/01/26 14:00:34;;;;;;;;;;;;;;;;;;5074821;28;1823;-70
2021/01/26 14:03:01;;;;;;;;;;;;;;;;;;5059839;28;1886;-70
2021/01/26 14:05:31;;;;;;;;;;;;;;;;;;5057141;28;1547;-71
2021/01/26 14:07:56;;;;;;;;;;;;;;;;;;5065237;28;1766;-71
2021/01/26 14:10:22;;;;;;;;;;;;;;;;;;5074780;28;871;-71
2021/01/26 14:12:47;;;;;;;;;;;;;;;;;;5074241;28;1295;-71
2021/01/26 14:15:13;;;;;;;;;;;;;;;;;;5070274;28;1718;-70
2021/01/26 14:17:39;;;;;;;;;;;;;;;;;;5073042;28;1202;-71
2021/01/26 14:20:05;;;;;;;;;;;;;;;;;;5073898;28;1635;-69
2021/01/26 14:22:30;;;;;;;;;;;;;;;;;;5071464;28;1540;-70
2021/01/26 14:24:55;;;;;;;;;;;;;;;;;;5073193;28;1953;-70
2021/01/26 14:27:21;;;;;;;;;;;;;;;;;;5074360;28;837;-70
2021/01/26 14:29:47;;;;;;;;;;;;;;;;;;5074368;28;877;-71
2021/01/26 14:32:13;;;;;;;;;;;;;;;;;;5072890;28;934;-70
2021/01/26 14:34:38;;;;;;;;;;;;;;;;;;5073176;28;1432;-71
2021/01/26 14:37:03;;;;;;;;;;;;;;;;;;5073065;28;1304;-70
2021/01/26 14:39:28;;;;;;;;;;;;;;;;;;5065626;28;1680;-70
2021/01/26 14:41:54;;;;;;;;;;;;;;;;;;5053850;28;1281;-71
2021/01/26 14:44:19;;;;;;;;;;;;;;;;;;5053339;28;1898;-70
2021/01/26 14:46:44;;;;;;;;;;;;;;;;;;5054230;28;1314;-70
2021/01/26 14:49:09;;;;;;;;;;;;;;;;;;5054378;28;794;-70
2021/01/26 14:51:35;;;;;;;;;;;;;;;;;;5054468;28;936;-70
2021/01/26 14:54:00;;;;;;;;;;;;;;;;;;5052533;28;1230;-71
2021/01/26 14:56:25;;;;;;;;;;;;;;;;;;5054238;28;1321;-71
2021/01/26 14:58:51;;;;;;;;;;;;;;;;;;5054109;28;925;-71
2021/01/26 15:01:17;;;;;;;;;;;;;;;;;;5053024;28;1218;-70
2021/01/26 15:03:42;;;;;;;;;;;;;;;;;;5052756;28;1951;-69
2021/01/26 15:06:07;;;;;;;;;;;;;;;;;;5056425;28;1405;-71
2021/01/26 15:08:33;;;;;;;;;;;;;;;;;;5057843;28;845;-71
2021/01/26 15:10:58;;;;;;;;;;;;;;;;;;5058026;28;916;-70
2021/01/26 15:13:24;;;;;;;;;;;;;;;;;;5057684;28;852;-71
2021/01/26 15:15:49;;;;;;;;;;;;;;;;;;5057716;28;1326;-70
2021/01/26 15:18:14;;;;;;;;;;;;;;;;;;5056651;28;1124;-70
2021/01/26 15:20:40;;;;;;;;;;;;;;;;;;5057667;28;790;-70
2021/01/26 15:23:05;;;;;;;;;;;;;;;;;;5057387;28;1961;-70
2021/01/26 15:25:30;;;;;;;;;;;;;;;;;;5056353;28;1278;-71
2021/01/26 15:27:55;;;;;;;;;;;;;;;;;;5057675;28;874;-70
2021/01/26 15:30:22;;;;;;;;;;;;;;;;;;5056146;28;921;-70
2021/01/26 15:32:47;;;;;;;;;;;;;;;;;;5056251;28;1386;-70
2021/01/26 15:35:13;;;;;;;;;;;;;;;;;;5056333;28;1439;-71
2021/01/26 15:37:43;;;;;;;;;;;;;;;;;;5039755;28;1685;-70
2021/01/26 15:40:08;;;;;;;;;;;;;;;;;;5057405;28;833;-71
2021/01/26 15:42:34;;;;;;;;;;;;;;;;;;5057270;28;979;-70
2021/01/26 15:44:59;;;;;;;;;;;;;;;;;;5055971;28;1898;-70
2021/01/26 15:47:24;;;;;;;;;;;;;;;;;;5057395;28;852;-70
2021/01/26 15:49:49;;;;;;;;;;;;;;;;;;5057337;28;790;-70
2021/01/26 15:52:15;;;;;;;;;;;;;;;;;;5056391;28;944;-71
2021/01/26 15:54:40;;;;;;;;;;;;;;;;;;5055786;28;1356;-69
2021/01/26 15:57:05;;;;;;;;;;;;;;;;;;5057225;28;880;-71
2021/01/26 15:59:31;;;;;;;;;;;;;;;;;;5056208;28;963;-69
2021/01/26 16:01:56;;;;;;;;;;;;;;;;;;5057106;28;865;-71
2021/01/26 16:04:21;;;;;;;;;;;;;;;;;;5056596;28;1898;-71
2021/01/26 16:06:46;;;;;;;;;;;;;;;;;;5055646;28;1389;-69
2021/01/26 16:09:12;;;;;;;;;;;;;;;;;;5055828;28;881;-70
2021/01/26 16:11:37;;;;;;;;;;;;;;;;;;5056736;28;1175;-70
2021/01/26 16:14:03;;;;;;;;;;;;;;;;;;5055753;28;1541;-70
2021/01/26 16:16:28;;;;;;;;;;;;;;;;;;5054854;28;1384;-70
2021/01/26 16:18:53;;;;;;;;;;;;;;;;;;5056747;28;904;-72
2021/01/26 16:21:20;;;;;;;;;;;;;;;;;;5056674;28;889;-71
2021/01/26 16:23:45;;;;;;;;;;;;;;;;;;5054962;28;1906;-71
2021/01/26 16:26:10;;;;;;;;;;;;;;;;;;5055247;28;1418;-71
2021/01/26 16:28:36;;;;;;;;;;;;;;;;;;5056649;28;963;-71
2021/01/26 16:31:01;;;;;;;;;;;;;;;;;;5055316;28;822;-71
2021/01/26 16:33:26;;;;;;;;;;;;;;;;;;5056294;28;845;-71
2021/01/26 16:35:54;;;;;;;;;;;;;;;;;;5056363;28;1349;-70
2021/01/26 16:38:19;;;;;;;;;;;;;;;;;;5056478;28;865;-70
2021/01/26 16:40:49;;;;;;;;;;;;;;;;;;5056157;28;920;-70
2021/01/26 16:43:15;;;;;;;;;;;;;;;;;;5056458;28;1953;-71
2021/01/26 16:45:40;;;;;;;;;;;;;;;;;;5055007;28;1369;-69
2021/01/26 16:48:05;;;;;;;;;;;;;;;;;;5055024;28;1211;-70
2021/01/26 16:50:33;;;;;;;;;;;;;;;;;;5056007;28;899;-71
2021/01/26 16:52:59;;;;;;;;;;;;;;;;;;5054696;28;830;-70
2021/01/26 16:55:24;;;;;;;;;;;;;;;;;;5055999;28;1404;-70
2021/01/26 16:57:49;;;;;;;;;;;;;;;;;;5054781;28;1423;-71
2021/01/26 17:00:20;;;;;;;;;;;;;;;;;;5056095;28;781;-71
2021/01/26 17:02:45;;;;;;;;;;;;;;;;;;5055610;28;1955;-70
2021/01/26 17:05:11;;;;;;;;;;;;;;;;;;5056008;28;1400;-70
2021/01/26 17:07:36;;;;;;;;;;;;;;;;;;5055729;28;880;-71
2021/01/26 17:10:03;;;;;;;;;;;;;;;;;;5055624;28;865;-70
2021/01/26 17:12:28;;;;;;;;;;;;;;;;;;5054664;28;1124;-71
2021/01/26 17:14:53;;;;;;;;;;;;;;;;;;5054025;28;1290;-69
2021/01/26 17:17:18;;;;;;;;;;;;;;;;;;5055364;28;881;-70
2021/01/26 17:19:46;;;;;;;;;;;;;;;;;;5055426;28;803;-70